sensor_id;sensor_type;location;lat;lon;timestamp;P1;durP1;ratioP1;P2;durP2;ratioP2
57309;SDS011;43153;50.984;18.204;2023-12-07T00:01:16;109.80;;;41.60;;
57309;SDS011;43153;50.984;18.204;2023-12-07T00:03:44;98.00;;;37.80;;
57309;SDS011;43153;50.984;18.204;2023-12-07T00:06:18;105.30;;;39.20;;
57309;SDS011;43153;50.984;18.204;2023-12-07T00:08:47;98.80;;;38.80;;
57309;SDS011;43153;50.984;18.204;2023-12-07T00:11:19;101.80;;;41.60;;
57309;SDS011;43153;50.984;18.204;2023-12-07T00:13:54;105.70;;;41.40;;
57309;SDS011;43153;50.984;18.204;2023-12-07T00:16:22;92.20;;;35.80;;
57309;SDS011;43153;50.984;18.204;2023-12-07T00:18:50;104.40;;;40.20;;
57309;SDS011;43153;50.984;18.204;2023-12-07T00:21:18;108.40;;;42.10;;
57309;SDS011;43153;50.984;18.204;2023-12-07T00:23:45;106.70;;;39.50;;
57309;SDS011;43153;50.984;18.204;2023-12-07T00:26:12;104.80;;;39.90;;
57309;SDS011;43153;50.984;18.204;2023-12-07T00:28:43;93.80;;;38.60;;
57309;SDS011;43153;50.984;18.204;2023-12-07T00:31:09;107.90;;;41.10;;
57309;SDS011;43153;50.984;18.204;2023-12-07T00:33:43;101.00;;;39.10;;
57309;SDS011;43153;50.984;18.204;2023-12-07T00:36:16;96.10;;;38.70;;
57309;SDS011;43153;50.984;18.204;2023-12-07T00:38:48;100.60;;;38.30;;
57309;SDS011;43153;50.984;18.204;2023-12-07T00:41:14;104.40;;;40.20;;
57309;SDS011;43153;50.984;18.204;2023-12-07T00:43:40;115.40;;;41.00;;
57309;SDS011;43153;50.984;18.204;2023-12-07T00:46:09;102.70;;;39.50;;
57309;SDS011;43153;50.984;18.204;2023-12-07T00:48:37;95.50;;;38.60;;
57309;SDS011;43153;50.984;18.204;2023-12-07T00:51:03;104.50;;;40.80;;
57309;SDS011;43153;50.984;18.204;2023-12-07T00:53:32;95.80;;;39.00;;
57309;SDS011;43153;50.984;18.204;2023-12-07T00:56:03;98.80;;;40.60;;
57309;SDS011;43153;50.984;18.204;2023-12-07T00:58:30;95.70;;;37.50;;
57309;SDS011;43153;50.984;18.204;2023-12-07T01:01:04;99.20;;;38.70;;
57309;SDS011;43153;50.984;18.204;2023-12-07T01:03:32;92.20;;;35.20;;
57309;SDS011;43153;50.984;18.204;2023-12-07T01:06:01;96.40;;;36.00;;
57309;SDS011;43153;50.984;18.204;2023-12-07T01:08:31;97.40;;;36.80;;
57309;SDS011;43153;50.984;18.204;2023-12-07T01:11:02;93.90;;;38.40;;
57309;SDS011;43153;50.984;18.204;2023-12-07T01:13:29;107.10;;;37.40;;
57309;SDS011;43153;50.984;18.204;2023-12-07T01:15:59;86.10;;;34.90;;
57309;SDS011;43153;50.984;18.204;2023-12-07T01:18:30;97.20;;;35.60;;
57309;SDS011;43153;50.984;18.204;2023-12-07T01:20:59;96.10;;;37.40;;
57309;SDS011;43153;50.984;18.204;2023-12-07T01:23:30;94.30;;;38.00;;
57309;SDS011;43153;50.984;18.204;2023-12-07T01:25:57;97.40;;;37.10;;
57309;SDS011;43153;50.984;18.204;2023-12-07T01:28:31;100.80;;;39.50;;
57309;SDS011;43153;50.984;18.204;2023-12-07T01:30:58;106.70;;;41.00;;
57309;SDS011;43153;50.984;18.204;2023-12-07T01:33:23;102.20;;;37.90;;
57309;SDS011;43153;50.984;18.204;2023-12-07T01:35:52;88.50;;;36.40;;
57309;SDS011;43153;50.984;18.204;2023-12-07T01:38:18;95.30;;;36.60;;
57309;SDS011;43153;50.984;18.204;2023-12-07T01:40:46;93.60;;;37.30;;
57309;SDS011;43153;50.984;18.204;2023-12-07T01:43:12;89.40;;;37.20;;
57309;SDS011;43153;50.984;18.204;2023-12-07T01:45:40;95.90;;;36.80;;
57309;SDS011;43153;50.984;18.204;2023-12-07T01:48:06;90.20;;;32.90;;
57309;SDS011;43153;50.984;18.204;2023-12-07T01:50:33;90.10;;;33.70;;
57309;SDS011;43153;50.984;18.204;2023-12-07T01:53:01;95.80;;;35.40;;
57309;SDS011;43153;50.984;18.204;2023-12-07T01:55:27;95.60;;;37.00;;
57309;SDS011;43153;50.984;18.204;2023-12-07T01:57:54;98.80;;;36.70;;
57309;SDS011;43153;50.984;18.204;2023-12-07T02:00:23;81.10;;;32.80;;
57309;SDS011;43153;50.984;18.204;2023-12-07T02:02:51;101.00;;;36.80;;
57309;SDS011;43153;50.984;18.204;2023-12-07T02:05:21;92.50;;;35.40;;
57309;SDS011;43153;50.984;18.204;2023-12-07T02:07:49;89.60;;;35.70;;
57309;SDS011;43153;50.984;18.204;2023-12-07T02:10:15;86.10;;;36.30;;
57309;SDS011;43153;50.984;18.204;2023-12-07T02:12:42;91.00;;;37.20;;
57309;SDS011;43153;50.984;18.204;2023-12-07T02:15:08;87.80;;;32.90;;
57309;SDS011;43153;50.984;18.204;2023-12-07T02:23:01;84.50;;;33.20;;
57309;SDS011;43153;50.984;18.204;2023-12-07T02:25:36;93.10;;;39.00;;
57309;SDS011;43153;50.984;18.204;2023-12-07T02:28:41;96.80;;;36.00;;
57309;SDS011;43153;50.984;18.204;2023-12-07T02:31:07;105.10;;;37.30;;
57309;SDS011;43153;50.984;18.204;2023-12-07T02:33:40;95.60;;;36.60;;
57309;SDS011;43153;50.984;18.204;2023-12-07T02:36:05;98.80;;;35.00;;
57309;SDS011;43153;50.984;18.204;2023-12-07T02:38:34;85.30;;;36.20;;
57309;SDS011;43153;50.984;18.204;2023-12-07T02:41:00;90.70;;;36.70;;
57309;SDS011;43153;50.984;18.204;2023-12-07T02:43:28;99.70;;;39.30;;
57309;SDS011;43153;50.984;18.204;2023-12-07T02:45:58;91.80;;;36.00;;
57309;SDS011;43153;50.984;18.204;2023-12-07T02:48:32;95.10;;;36.20;;
57309;SDS011;43153;50.984;18.204;2023-12-07T02:50:58;95.30;;;33.60;;
57309;SDS011;43153;50.984;18.204;2023-12-07T02:53:30;93.60;;;34.70;;
57309;SDS011;43153;50.984;18.204;2023-12-07T02:55:56;90.40;;;37.20;;
57309;SDS011;43153;50.984;18.204;2023-12-07T02:58:22;93.40;;;36.30;;
57309;SDS011;43153;50.984;18.204;2023-12-07T03:00:48;90.80;;;33.90;;
57309;SDS011;43153;50.984;18.204;2023-12-07T03:03:20;85.90;;;33.40;;
57309;SDS011;43153;50.984;18.204;2023-12-07T03:05:50;82.30;;;32.90;;
57309;SDS011;43153;50.984;18.204;2023-12-07T03:08:19;92.20;;;33.90;;
57309;SDS011;43153;50.984;18.204;2023-12-07T03:10:46;79.40;;;33.50;;
57309;SDS011;43153;50.984;18.204;2023-12-07T03:13:12;92.60;;;34.90;;
57309;SDS011;43153;50.984;18.204;2023-12-07T03:15:38;96.80;;;38.00;;
57309;SDS011;43153;50.984;18.204;2023-12-07T03:18:04;97.10;;;34.20;;
57309;SDS011;43153;50.984;18.204;2023-12-07T03:20:33;95.70;;;34.90;;
57309;SDS011;43153;50.984;18.204;2023-12-07T03:22:59;86.60;;;32.60;;
57309;SDS011;43153;50.984;18.204;2023-12-07T03:25:26;90.10;;;34.50;;
57309;SDS011;43153;50.984;18.204;2023-12-07T03:27:52;87.00;;;33.30;;
57309;SDS011;43153;50.984;18.204;2023-12-07T03:30:18;88.10;;;36.40;;
57309;SDS011;43153;50.984;18.204;2023-12-07T03:32:45;87.10;;;32.60;;
57309;SDS011;43153;50.984;18.204;2023-12-07T03:35:11;89.10;;;34.60;;
57309;SDS011;43153;50.984;18.204;2023-12-07T03:37:39;85.90;;;32.70;;
57309;SDS011;43153;50.984;18.204;2023-12-07T03:40:05;81.80;;;32.50;;
57309;SDS011;43153;50.984;18.204;2023-12-07T03:42:34;84.40;;;32.70;;
57309;SDS011;43153;50.984;18.204;2023-12-07T03:45:08;82.00;;;30.40;;
57309;SDS011;43153;50.984;18.204;2023-12-07T03:47:38;86.30;;;31.00;;
57309;SDS011;43153;50.984;18.204;2023-12-07T03:50:04;85.80;;;32.00;;
57309;SDS011;43153;50.984;18.204;2023-12-07T03:52:30;83.00;;;29.10;;
57309;SDS011;43153;50.984;18.204;2023-12-07T03:54:56;78.20;;;28.50;;
57309;SDS011;43153;50.984;18.204;2023-12-07T03:57:24;78.90;;;31.90;;
57309;SDS011;43153;50.984;18.204;2023-12-07T03:59:50;87.70;;;33.80;;
57309;SDS011;43153;50.984;18.204;2023-12-07T04:02:18;81.60;;;33.80;;
57309;SDS011;43153;50.984;18.204;2023-12-07T04:04:46;81.80;;;32.30;;
57309;SDS011;43153;50.984;18.204;2023-12-07T04:07:13;93.00;;;31.90;;
57309;SDS011;43153;50.984;18.204;2023-12-07T04:09:43;85.00;;;29.90;;
57309;SDS011;43153;50.984;18.204;2023-12-07T04:12:10;72.10;;;29.70;;
57309;SDS011;43153;50.984;18.204;2023-12-07T04:14:41;82.20;;;29.70;;
57309;SDS011;43153;50.984;18.204;2023-12-07T04:17:08;81.50;;;31.60;;
57309;SDS011;43153;50.984;18.204;2023-12-07T04:19:38;81.00;;;31.00;;
57309;SDS011;43153;50.984;18.204;2023-12-07T04:22:05;83.40;;;29.50;;
57309;SDS011;43153;50.984;18.204;2023-12-07T04:24:32;84.90;;;31.50;;
57309;SDS011;43153;50.984;18.204;2023-12-07T04:27:00;77.00;;;30.10;;
57309;SDS011;43153;50.984;18.204;2023-12-07T04:29:27;92.40;;;31.70;;
57309;SDS011;43153;50.984;18.204;2023-12-07T04:31:56;85.80;;;31.00;;
57309;SDS011;43153;50.984;18.204;2023-12-07T04:34:22;94.30;;;34.50;;
57309;SDS011;43153;50.984;18.204;2023-12-07T04:36:49;93.30;;;33.70;;
57309;SDS011;43153;50.984;18.204;2023-12-07T04:39:14;89.70;;;34.00;;
57309;SDS011;43153;50.984;18.204;2023-12-07T04:41:41;90.70;;;33.00;;
57309;SDS011;43153;50.984;18.204;2023-12-07T04:44:07;87.70;;;33.60;;
57309;SDS011;43153;50.984;18.204;2023-12-07T04:46:33;90.30;;;35.00;;
57309;SDS011;43153;50.984;18.204;2023-12-07T04:49:01;87.70;;;34.30;;
57309;SDS011;43153;50.984;18.204;2023-12-07T04:51:29;90.00;;;33.20;;
57309;SDS011;43153;50.984;18.204;2023-12-07T04:53:56;88.50;;;33.60;;
57309;SDS011;43153;50.984;18.204;2023-12-07T04:56:29;93.50;;;33.60;;
57309;SDS011;43153;50.984;18.204;2023-12-07T04:58:55;84.90;;;33.00;;
57309;SDS011;43153;50.984;18.204;2023-12-07T05:01:21;85.20;;;33.60;;
57309;SDS011;43153;50.984;18.204;2023-12-07T05:03:50;80.30;;;32.30;;
57309;SDS011;43153;50.984;18.204;2023-12-07T05:06:18;78.90;;;30.60;;
57309;SDS011;43153;50.984;18.204;2023-12-07T05:08:49;86.20;;;32.40;;
57309;SDS011;43153;50.984;18.204;2023-12-07T05:11:15;105.50;;;34.40;;
57309;SDS011;43153;50.984;18.204;2023-12-07T05:13:41;88.90;;;33.80;;
57309;SDS011;43153;50.984;18.204;2023-12-07T05:16:09;84.90;;;35.60;;
57309;SDS011;43153;50.984;18.204;2023-12-07T05:18:39;86.50;;;35.90;;
57309;SDS011;43153;50.984;18.204;2023-12-07T05:21:05;89.00;;;35.90;;
57309;SDS011;43153;50.984;18.204;2023-12-07T05:23:38;87.60;;;33.40;;
57309;SDS011;43153;50.984;18.204;2023-12-07T05:26:04;91.40;;;34.00;;
57309;SDS011;43153;50.984;18.204;2023-12-07T05:28:30;85.40;;;32.20;;
57309;SDS011;43153;50.984;18.204;2023-12-07T05:31:00;89.90;;;31.30;;
57309;SDS011;43153;50.984;18.204;2023-12-07T05:33:26;99.60;;;38.10;;
57309;SDS011;43153;50.984;18.204;2023-12-07T05:35:52;86.60;;;34.90;;
57309;SDS011;43153;50.984;18.204;2023-12-07T05:38:21;96.80;;;36.70;;
57309;SDS011;43153;50.984;18.204;2023-12-07T05:40:47;82.80;;;35.60;;
57309;SDS011;43153;50.984;18.204;2023-12-07T05:43:14;88.50;;;36.20;;
57309;SDS011;43153;50.984;18.204;2023-12-07T05:45:47;83.20;;;32.40;;
57309;SDS011;43153;50.984;18.204;2023-12-07T05:48:30;90.70;;;33.20;;
57309;SDS011;43153;50.984;18.204;2023-12-07T05:50:56;86.00;;;36.40;;
57309;SDS011;43153;50.984;18.204;2023-12-07T05:53:23;92.00;;;33.50;;
57309;SDS011;43153;50.984;18.204;2023-12-07T05:55:54;85.40;;;33.90;;
57309;SDS011;43153;50.984;18.204;2023-12-07T05:58:22;83.10;;;35.60;;
57309;SDS011;43153;50.984;18.204;2023-12-07T06:00:50;86.50;;;32.30;;
57309;SDS011;43153;50.984;18.204;2023-12-07T06:03:16;91.20;;;32.60;;
57309;SDS011;43153;50.984;18.204;2023-12-07T06:05:43;86.30;;;31.70;;
57309;SDS011;43153;50.984;18.204;2023-12-07T06:08:11;88.80;;;32.80;;
57309;SDS011;43153;50.984;18.204;2023-12-07T06:10:38;82.30;;;32.60;;
57309;SDS011;43153;50.984;18.204;2023-12-07T06:13:07;85.20;;;35.20;;
57309;SDS011;43153;50.984;18.204;2023-12-07T06:15:34;83.40;;;33.40;;
57309;SDS011;43153;50.984;18.204;2023-12-07T06:18:01;91.00;;;34.80;;
57309;SDS011;43153;50.984;18.204;2023-12-07T06:20:27;92.30;;;32.90;;
57309;SDS011;43153;50.984;18.204;2023-12-07T06:22:54;87.50;;;32.50;;
57309;SDS011;43153;50.984;18.204;2023-12-07T06:25:20;84.20;;;32.30;;
57309;SDS011;43153;50.984;18.204;2023-12-07T06:27:46;95.80;;;35.40;;
57309;SDS011;43153;50.984;18.204;2023-12-07T06:30:11;95.40;;;36.00;;
57309;SDS011;43153;50.984;18.204;2023-12-07T06:32:39;94.10;;;33.70;;
57309;SDS011;43153;50.984;18.204;2023-12-07T06:35:05;101.80;;;35.50;;
57309;SDS011;43153;50.984;18.204;2023-12-07T06:37:31;97.00;;;36.60;;
57309;SDS011;43153;50.984;18.204;2023-12-07T06:39:59;95.80;;;36.30;;
57309;SDS011;43153;50.984;18.204;2023-12-07T06:42:26;97.80;;;36.40;;
57309;SDS011;43153;50.984;18.204;2023-12-07T06:44:52;111.60;;;38.80;;
57309;SDS011;43153;50.984;18.204;2023-12-07T06:47:23;100.30;;;35.60;;
57309;SDS011;43153;50.984;18.204;2023-12-07T06:49:49;96.00;;;36.90;;
57309;SDS011;43153;50.984;18.204;2023-12-07T06:52:20;100.30;;;37.40;;
57309;SDS011;43153;50.984;18.204;2023-12-07T06:54:49;93.20;;;34.60;;
57309;SDS011;43153;50.984;18.204;2023-12-07T06:57:15;101.70;;;40.00;;
57309;SDS011;43153;50.984;18.204;2023-12-07T06:59:47;97.80;;;35.80;;
57309;SDS011;43153;50.984;18.204;2023-12-07T07:02:13;93.20;;;35.10;;
57309;SDS011;43153;50.984;18.204;2023-12-07T07:04:39;98.50;;;37.00;;
57309;SDS011;43153;50.984;18.204;2023-12-07T07:07:04;98.70;;;38.30;;
57309;SDS011;43153;50.984;18.204;2023-12-07T07:09:36;92.30;;;36.70;;
57309;SDS011;43153;50.984;18.204;2023-12-07T07:12:04;98.50;;;36.40;;
57309;SDS011;43153;50.984;18.204;2023-12-07T07:14:30;92.50;;;37.10;;
57309;SDS011;43153;50.984;18.204;2023-12-07T07:16:56;102.20;;;33.90;;
57309;SDS011;43153;50.984;18.204;2023-12-07T07:19:26;98.30;;;39.50;;
57309;SDS011;43153;50.984;18.204;2023-12-07T07:21:53;101.70;;;34.80;;
57309;SDS011;43153;50.984;18.204;2023-12-07T07:24:20;88.50;;;33.00;;
57309;SDS011;43153;50.984;18.204;2023-12-07T07:26:46;97.00;;;37.90;;
57309;SDS011;43153;50.984;18.204;2023-12-07T07:29:16;89.50;;;38.70;;
57309;SDS011;43153;50.984;18.204;2023-12-07T07:31:41;98.60;;;35.00;;
57309;SDS011;43153;50.984;18.204;2023-12-07T07:34:07;80.20;;;31.40;;
57309;SDS011;43153;50.984;18.204;2023-12-07T07:36:33;87.80;;;32.90;;
57309;SDS011;43153;50.984;18.204;2023-12-07T07:38:59;91.60;;;34.60;;
57309;SDS011;43153;50.984;18.204;2023-12-07T07:41:24;108.90;;;41.80;;
57309;SDS011;43153;50.984;18.204;2023-12-07T07:43:50;103.90;;;40.40;;
57309;SDS011;43153;50.984;18.204;2023-12-07T07:46:16;103.50;;;37.10;;
57309;SDS011;43153;50.984;18.204;2023-12-07T07:48:42;96.40;;;36.40;;
57309;SDS011;43153;50.984;18.204;2023-12-07T07:51:07;93.30;;;36.50;;
57309;SDS011;43153;50.984;18.204;2023-12-07T07:53:34;98.50;;;37.10;;
57309;SDS011;43153;50.984;18.204;2023-12-07T07:56:00;94.10;;;35.70;;
57309;SDS011;43153;50.984;18.204;2023-12-07T07:58:25;93.90;;;35.70;;
57309;SDS011;43153;50.984;18.204;2023-12-07T08:00:51;94.70;;;33.90;;
57309;SDS011;43153;50.984;18.204;2023-12-07T08:03:17;95.70;;;35.90;;
57309;SDS011;43153;50.984;18.204;2023-12-07T08:05:43;96.50;;;38.80;;
57309;SDS011;43153;50.984;18.204;2023-12-07T08:08:09;96.20;;;36.20;;
57309;SDS011;43153;50.984;18.204;2023-12-07T08:10:35;93.00;;;37.80;;
57309;SDS011;43153;50.984;18.204;2023-12-07T08:13:01;96.90;;;37.70;;
57309;SDS011;43153;50.984;18.204;2023-12-07T08:15:27;94.70;;;38.60;;
57309;SDS011;43153;50.984;18.204;2023-12-07T08:17:53;96.90;;;36.90;;
57309;SDS011;43153;50.984;18.204;2023-12-07T08:20:21;94.30;;;34.20;;
57309;SDS011;43153;50.984;18.204;2023-12-07T08:22:47;87.50;;;36.30;;
57309;SDS011;43153;50.984;18.204;2023-12-07T08:25:12;94.00;;;35.50;;
57309;SDS011;43153;50.984;18.204;2023-12-07T08:27:39;97.20;;;37.10;;
57309;SDS011;43153;50.984;18.204;2023-12-07T08:30:12;103.30;;;37.40;;
57309;SDS011;43153;50.984;18.204;2023-12-07T08:32:38;95.60;;;37.50;;
57309;SDS011;43153;50.984;18.204;2023-12-07T08:35:05;95.20;;;34.90;;
57309;SDS011;43153;50.984;18.204;2023-12-07T08:37:32;87.00;;;31.90;;
57309;SDS011;43153;50.984;18.204;2023-12-07T08:39:59;83.20;;;32.70;;
57309;SDS011;43153;50.984;18.204;2023-12-07T08:42:24;82.30;;;33.20;;
57309;SDS011;43153;50.984;18.204;2023-12-07T08:44:52;86.60;;;35.80;;
57309;SDS011;43153;50.984;18.204;2023-12-07T08:47:19;85.80;;;32.70;;
57309;SDS011;43153;50.984;18.204;2023-12-07T08:49:45;88.40;;;35.50;;
57309;SDS011;43153;50.984;18.204;2023-12-07T08:52:10;75.30;;;27.50;;
57309;SDS011;43153;50.984;18.204;2023-12-07T08:54:36;78.80;;;30.80;;
57309;SDS011;43153;50.984;18.204;2023-12-07T08:57:02;75.20;;;28.30;;
57309;SDS011;43153;50.984;18.204;2023-12-07T08:59:33;83.10;;;32.80;;
57309;SDS011;43153;50.984;18.204;2023-12-07T09:02:00;83.00;;;31.90;;
57309;SDS011;43153;50.984;18.204;2023-12-07T09:04:26;92.30;;;34.40;;
57309;SDS011;43153;50.984;18.204;2023-12-07T09:06:54;78.30;;;34.50;;
57309;SDS011;43153;50.984;18.204;2023-12-07T09:09:23;90.50;;;35.50;;
57309;SDS011;43153;50.984;18.204;2023-12-07T09:11:50;90.60;;;36.50;;
57309;SDS011;43153;50.984;18.204;2023-12-07T09:14:15;92.20;;;35.40;;
57309;SDS011;43153;50.984;18.204;2023-12-07T09:16:44;91.80;;;38.70;;
57309;SDS011;43153;50.984;18.204;2023-12-07T09:19:13;92.00;;;37.60;;
57309;SDS011;43153;50.984;18.204;2023-12-07T09:21:41;108.60;;;39.20;;
57309;SDS011;43153;50.984;18.204;2023-12-07T09:24:10;102.60;;;41.80;;
57309;SDS011;43153;50.984;18.204;2023-12-07T09:26:36;105.30;;;40.60;;
57309;SDS011;43153;50.984;18.204;2023-12-07T09:29:03;105.10;;;41.50;;
57309;SDS011;43153;50.984;18.204;2023-12-07T09:31:29;95.10;;;39.90;;
57309;SDS011;43153;50.984;18.204;2023-12-07T09:33:55;106.30;;;40.00;;
57309;SDS011;43153;50.984;18.204;2023-12-07T09:36:21;102.00;;;38.80;;
57309;SDS011;43153;50.984;18.204;2023-12-07T09:38:49;86.10;;;34.30;;
57309;SDS011;43153;50.984;18.204;2023-12-07T09:41:21;93.50;;;34.90;;
57309;SDS011;43153;50.984;18.204;2023-12-07T10:22:47;85.50;;;38.50;;
57309;SDS011;43153;50.984;18.204;2023-12-07T10:25:29;93.80;;;38.80;;
57309;SDS011;43153;50.984;18.204;2023-12-07T10:27:58;100.90;;;40.00;;
57309;SDS011;43153;50.984;18.204;2023-12-07T10:30:24;101.80;;;38.50;;
57309;SDS011;43153;50.984;18.204;2023-12-07T10:32:52;88.60;;;35.50;;
57309;SDS011;43153;50.984;18.204;2023-12-07T10:35:19;99.20;;;39.10;;
57309;SDS011;43153;50.984;18.204;2023-12-07T10:37:46;92.50;;;36.60;;
57309;SDS011;43153;50.984;18.204;2023-12-07T10:40:15;99.50;;;38.20;;
57309;SDS011;43153;50.984;18.204;2023-12-07T10:42:41;92.50;;;37.50;;
57309;SDS011;43153;50.984;18.204;2023-12-07T10:45:08;101.80;;;39.70;;
57309;SDS011;43153;50.984;18.204;2023-12-07T10:47:36;88.60;;;34.00;;
57309;SDS011;43153;50.984;18.204;2023-12-07T10:50:05;89.70;;;37.40;;
57309;SDS011;43153;50.984;18.204;2023-12-07T10:52:44;90.00;;;37.90;;
57309;SDS011;43153;50.984;18.204;2023-12-07T10:55:20;87.80;;;36.10;;
57309;SDS011;43153;50.984;18.204;2023-12-07T10:57:58;87.80;;;36.50;;
57309;SDS011;43153;50.984;18.204;2023-12-07T11:00:25;82.70;;;33.70;;
57309;SDS011;43153;50.984;18.204;2023-12-07T11:02:54;90.50;;;34.10;;
57309;SDS011;43153;50.984;18.204;2023-12-07T11:05:22;81.90;;;32.10;;
57309;SDS011;43153;50.984;18.204;2023-12-07T11:10:20;85.20;;;32.10;;
57309;SDS011;43153;50.984;18.204;2023-12-07T11:13:05;87.90;;;37.20;;
57309;SDS011;43153;50.984;18.204;2023-12-07T11:15:56;87.40;;;36.30;;
57309;SDS011;43153;50.984;18.204;2023-12-07T11:18:26;102.20;;;38.30;;
57309;SDS011;43153;50.984;18.204;2023-12-07T11:20:54;93.10;;;38.50;;
57309;SDS011;43153;50.984;18.204;2023-12-07T11:23:21;91.40;;;35.20;;
57309;SDS011;43153;50.984;18.204;2023-12-07T11:25:47;82.90;;;33.00;;
57309;SDS011;43153;50.984;18.204;2023-12-07T11:28:14;87.20;;;32.70;;
57309;SDS011;43153;50.984;18.204;2023-12-07T11:30:42;78.40;;;30.90;;
57309;SDS011;43153;50.984;18.204;2023-12-07T11:33:10;79.90;;;33.80;;
57309;SDS011;43153;50.984;18.204;2023-12-07T11:41:34;85.00;;;34.90;;
57309;SDS011;43153;50.984;18.204;2023-12-07T11:44:01;84.90;;;33.50;;
57309;SDS011;43153;50.984;18.204;2023-12-07T11:46:28;78.00;;;33.90;;
57309;SDS011;43153;50.984;18.204;2023-12-07T11:48:58;82.90;;;31.10;;
57309;SDS011;43153;50.984;18.204;2023-12-07T11:51:24;80.40;;;31.30;;
57309;SDS011;43153;50.984;18.204;2023-12-07T11:53:52;81.10;;;34.80;;
57309;SDS011;43153;50.984;18.204;2023-12-07T11:56:19;79.50;;;33.10;;
57309;SDS011;43153;50.984;18.204;2023-12-07T11:58:46;80.60;;;32.80;;
57309;SDS011;43153;50.984;18.204;2023-12-07T12:01:16;71.20;;;30.90;;
57309;SDS011;43153;50.984;18.204;2023-12-07T12:03:45;94.40;;;35.60;;
57309;SDS011;43153;50.984;18.204;2023-12-07T12:06:11;82.20;;;35.70;;
57309;SDS011;43153;50.984;18.204;2023-12-07T12:08:39;85.30;;;34.00;;
57309;SDS011;43153;50.984;18.204;2023-12-07T12:11:10;86.10;;;33.40;;
57309;SDS011;43153;50.984;18.204;2023-12-07T12:13:37;86.00;;;37.80;;
57309;SDS011;43153;50.984;18.204;2023-12-07T12:16:06;88.50;;;38.70;;
57309;SDS011;43153;50.984;18.204;2023-12-07T12:18:34;86.50;;;37.50;;
57309;SDS011;43153;50.984;18.204;2023-12-07T12:21:02;99.60;;;40.70;;
57309;SDS011;43153;50.984;18.204;2023-12-07T12:23:28;105.80;;;43.20;;
57309;SDS011;43153;50.984;18.204;2023-12-07T12:25:55;103.20;;;40.30;;
57309;SDS011;43153;50.984;18.204;2023-12-07T12:28:20;89.60;;;34.90;;
57309;SDS011;43153;50.984;18.204;2023-12-07T12:30:48;97.00;;;36.70;;
57309;SDS011;43153;50.984;18.204;2023-12-07T12:33:14;99.20;;;39.80;;
57309;SDS011;43153;50.984;18.204;2023-12-07T12:35:40;95.10;;;39.90;;
57309;SDS011;43153;50.984;18.204;2023-12-07T12:38:11;100.10;;;39.90;;
57309;SDS011;43153;50.984;18.204;2023-12-07T12:40:37;89.20;;;36.80;;
57309;SDS011;43153;50.984;18.204;2023-12-07T12:43:07;96.40;;;40.00;;
57309;SDS011;43153;50.984;18.204;2023-12-07T12:45:37;94.60;;;36.30;;
57309;SDS011;43153;50.984;18.204;2023-12-07T12:48:03;97.30;;;37.40;;
57309;SDS011;43153;50.984;18.204;2023-12-07T12:50:37;98.90;;;40.10;;
57309;SDS011;43153;50.984;18.204;2023-12-07T12:53:05;103.10;;;40.80;;
57309;SDS011;43153;50.984;18.204;2023-12-07T12:55:43;101.20;;;39.90;;
57309;SDS011;43153;50.984;18.204;2023-12-07T12:58:09;103.20;;;40.40;;
57309;SDS011;43153;50.984;18.204;2023-12-07T13:00:39;104.30;;;37.70;;
57309;SDS011;43153;50.984;18.204;2023-12-07T13:03:08;92.70;;;38.30;;
57309;SDS011;43153;50.984;18.204;2023-12-07T13:05:34;98.30;;;35.80;;
57309;SDS011;43153;50.984;18.204;2023-12-07T13:08:04;95.20;;;40.10;;
57309;SDS011;43153;50.984;18.204;2023-12-07T13:10:30;102.00;;;40.10;;
57309;SDS011;43153;50.984;18.204;2023-12-07T13:12:57;97.90;;;40.60;;
57309;SDS011;43153;50.984;18.204;2023-12-07T13:15:29;93.00;;;38.10;;
57309;SDS011;43153;50.984;18.204;2023-12-07T13:17:55;105.20;;;38.20;;
57309;SDS011;43153;50.984;18.204;2023-12-07T13:20:21;99.40;;;41.00;;
57309;SDS011;43153;50.984;18.204;2023-12-07T13:22:48;99.60;;;40.40;;
57309;SDS011;43153;50.984;18.204;2023-12-07T13:25:14;99.80;;;40.10;;
57309;SDS011;43153;50.984;18.204;2023-12-07T13:27:40;102.40;;;41.80;;
57309;SDS011;43153;50.984;18.204;2023-12-07T13:30:10;106.60;;;42.10;;
57309;SDS011;43153;50.984;18.204;2023-12-07T13:32:36;104.30;;;39.60;;
57309;SDS011;43153;50.984;18.204;2023-12-07T13:35:08;99.00;;;40.20;;
57309;SDS011;43153;50.984;18.204;2023-12-07T13:37:34;100.70;;;42.70;;
57309;SDS011;43153;50.984;18.204;2023-12-07T13:40:02;109.50;;;42.10;;
57309;SDS011;43153;50.984;18.204;2023-12-07T13:42:30;103.00;;;42.30;;
57309;SDS011;43153;50.984;18.204;2023-12-07T13:44:58;111.00;;;43.40;;
57309;SDS011;43153;50.984;18.204;2023-12-07T13:47:27;104.40;;;40.70;;
57309;SDS011;43153;50.984;18.204;2023-12-07T13:50:01;110.60;;;40.30;;
57309;SDS011;43153;50.984;18.204;2023-12-07T13:52:28;109.00;;;43.70;;
57309;SDS011;43153;50.984;18.204;2023-12-07T13:54:59;117.40;;;45.90;;
57309;SDS011;43153;50.984;18.204;2023-12-07T13:57:33;133.50;;;49.10;;
57309;SDS011;43153;50.984;18.204;2023-12-07T14:00:00;118.60;;;44.30;;
57309;SDS011;43153;50.984;18.204;2023-12-07T14:02:28;117.10;;;40.50;;
57309;SDS011;43153;50.984;18.204;2023-12-07T14:04:54;108.50;;;40.60;;
57309;SDS011;43153;50.984;18.204;2023-12-07T14:07:21;108.60;;;39.90;;
57309;SDS011;43153;50.984;18.204;2023-12-07T14:09:50;126.20;;;44.80;;
57309;SDS011;43153;50.984;18.204;2023-12-07T14:12:17;116.90;;;45.60;;
57309;SDS011;43153;50.984;18.204;2023-12-07T14:14:44;128.00;;;40.50;;
57309;SDS011;43153;50.984;18.204;2023-12-07T14:17:13;122.90;;;42.90;;
57309;SDS011;43153;50.984;18.204;2023-12-07T14:19:40;113.10;;;41.70;;
57309;SDS011;43153;50.984;18.204;2023-12-07T14:22:09;125.50;;;47.40;;
57309;SDS011;43153;50.984;18.204;2023-12-07T14:24:36;126.90;;;45.90;;
57309;SDS011;43153;50.984;18.204;2023-12-07T14:27:03;127.40;;;45.30;;
57309;SDS011;43153;50.984;18.204;2023-12-07T14:29:33;128.30;;;43.80;;
57309;SDS011;43153;50.984;18.204;2023-12-07T14:31:59;134.40;;;46.10;;
57309;SDS011;43153;50.984;18.204;2023-12-07T14:34:25;121.90;;;45.50;;
57309;SDS011;43153;50.984;18.204;2023-12-07T14:36:54;114.70;;;43.20;;
57309;SDS011;43153;50.984;18.204;2023-12-07T14:39:19;147.90;;;49.20;;
57309;SDS011;43153;50.984;18.204;2023-12-07T14:41:47;121.50;;;44.30;;
57309;SDS011;43153;50.984;18.204;2023-12-07T14:44:16;131.20;;;46.50;;
57309;SDS011;43153;50.984;18.204;2023-12-07T14:46:43;131.50;;;46.50;;
57309;SDS011;43153;50.984;18.204;2023-12-07T14:49:13;120.00;;;45.40;;
57309;SDS011;43153;50.984;18.204;2023-12-07T14:51:42;136.90;;;49.90;;
57309;SDS011;43153;50.984;18.204;2023-12-07T14:54:08;135.00;;;48.30;;
57309;SDS011;43153;50.984;18.204;2023-12-07T14:56:40;129.20;;;47.50;;
57309;SDS011;43153;50.984;18.204;2023-12-07T14:59:10;126.60;;;47.70;;
57309;SDS011;43153;50.984;18.204;2023-12-07T15:01:37;130.70;;;47.60;;
57309;SDS011;43153;50.984;18.204;2023-12-07T15:04:05;130.50;;;48.30;;